Time;durP1;ratioP1;P1;durP2;ratioP2;P2;SDS_P1;SDS_P2;PMS_P1;PMS_P2;Temp;Humidity;BMP_temperature;BMP_pressure;BME280_temperature;BME280_humidity;BME280_pressure;Samples;Min_cycle;Max_cycle;Signal;HPM_P1;HPM_P2
2022/09/20 00:00:39;;;;;;;0.20;0.20;;;;;;;;;;1757582;81;26398;-60
2022/09/20 00:03:07;;;;;;;0.30;0.30;;;;;;;;;;1769643;81;26270;-61
2022/09/20 00:05:35;;;;;;;0.55;0.40;;;;;;;;;;1768296;80;26281;-61
2022/09/20 00:08:04;;;;;;;0.30;0.30;;;;;;;;;;1757509;81;26373;-62
2022/09/20 00:10:34;;;;;;;0.30;0.30;;;;;;;;;;1771533;80;26371;-60
2022/09/20 00:13:02;;;;;;;0.15;0.15;;;;;;;;;;1761757;80;26395;-60
2022/09/20 00:15:30;;;;;;;0.20;0.20;;;;;;;;;;1767706;80;26301;-63
2022/09/20 00:17:57;;;;;;;1.20;0.25;;;;;;;;;;1745536;81;26394;-61
2022/09/20 00:20:25;;;;;;;0.70;0.25;;;;;;;;;;1773445;79;26888;-63
2022/09/20 00:22:52;;;;;;;0.20;0.20;;;;;;;;;;1779018;79;26272;-60
2022/09/20 00:25:21;;;;;;;0.28;0.28;;;;;;;;;;1786980;79;26283;-59
2022/09/20 00:27:48;;;;;;;0.40;0.23;;;;;;;;;;1796191;79;26308;-64
2022/09/20 00:30:16;;;;;;;0.20;0.20;;;;;;;;;;1806865;79;27005;-65
2022/09/20 00:32:43;;;;;;;0.20;0.20;;;;;;;;;;1805426;79;26296;-65
2022/09/20 00:35:10;;;;;;;0.30;0.30;;;;;;;;;;1758216;80;26251;-62
2022/09/20 00:37:38;;;;;;;0.10;0.10;;;;;;;;;;1796155;79;26272;-63
2022/09/20 00:40:07;;;;;;;0.20;0.20;;;;;;;;;;1800589;79;26310;-66
2022/09/20 00:42:35;;;;;;;0.23;0.23;;;;;;;;;;1777989;79;26251;-60
2022/09/20 00:45:04;;;;;;;0.23;0.23;;;;;;;;;;1803766;79;26318;-60
2022/09/20 00:47:41;;;;;;;0.20;0.20;;;;;;;;;;1805413;79;26295;-60
2022/09/20 00:50:13;;;;;;;0.23;0.23;;;;;;;;;;1791688;79;26267;-62
2022/09/20 00:52:42;;;;;;;0.20;0.20;;;;;;;;;;1762180;80;26667;-61
2022/09/20 00:55:10;;;;;;;0.20;0.20;;;;;;;;;;1801787;79;26393;-62
2022/09/20 00:57:38;;;;;;;0.28;0.28;;;;;;;;;;1801987;79;26335;-64
2022/09/20 01:00:09;;;;;;;0.30;0.30;;;;;;;;;;1783927;79;26308;-59
2022/09/20 01:02:38;;;;;;;0.20;0.20;;;;;;;;;;1805996;79;26369;-59
2022/09/20 01:05:07;;;;;;;0.55;0.25;;;;;;;;;;1800406;79;26810;-65
2022/09/20 01:07:35;;;;;;;0.30;0.30;;;;;;;;;;1778546;79;26749;-60
2022/09/20 01:10:02;;;;;;;0.25;0.25;;;;;;;;;;1794738;79;26350;-61
2022/09/20 01:12:33;;;;;;;0.25;0.25;;;;;;;;;;1803196;79;26372;-59
2022/09/20 01:15:01;;;;;;;0.70;0.28;;;;;;;;;;1796200;79;26344;-59
2022/09/20 01:17:30;;;;;;;0.30;0.30;;;;;;;;;;1785453;79;26602;-61
2022/09/20 01:19:59;;;;;;;0.30;0.30;;;;;;;;;;1782544;79;26413;-59
2022/09/20 01:22:44;;;;;;;0.23;0.23;;;;;;;;;;1770984;80;26606;-61
2022/09/20 01:25:13;;;;;;;0.33;0.30;;;;;;;;;;1747993;80;26325;-61
2022/09/20 01:27:44;;;;;;;0.50;0.30;;;;;;;;;;1767013;80;26811;-60
2022/09/20 01:30:13;;;;;;;0.20;0.20;;;;;;;;;;1779320;80;26768;-60
2022/09/20 01:32:42;;;;;;;0.30;0.30;;;;;;;;;;1764935;80;26309;-62
2022/09/20 01:35:10;;;;;;;0.30;0.30;;;;;;;;;;1771242;80;26350;-61
2022/09/20 01:37:48;;;;;;;0.70;0.28;;;;;;;;;;1783714;80;26342;-64
2022/09/20 01:40:29;;;;;;;0.23;0.23;;;;;;;;;;1780497;80;26362;-61
2022/09/20 01:43:15;;;;;;;0.30;0.30;;;;;;;;;;1785046;80;26272;-63
2022/09/20 01:45:44;;;;;;;0.30;0.30;;;;;;;;;;1778168;80;26766;-60
2022/09/20 01:48:19;;;;;;;1.57;0.30;;;;;;;;;;1784431;80;26311;-61
2022/09/20 01:50:47;;;;;;;0.30;0.30;;;;;;;;;;1770862;80;26280;-61
2022/09/20 01:53:19;;;;;;;0.20;0.20;;;;;;;;;;1772018;80;26354;-61
2022/09/20 01:56:05;;;;;;;0.20;0.20;;;;;;;;;;1778432;80;26334;-63
2022/09/20 01:58:51;;;;;;;0.30;0.30;;;;;;;;;;1779838;80;26369;-60
2022/09/20 02:01:37;;;;;;;0.10;0.10;;;;;;;;;;1768131;80;26347;-60
2022/09/20 02:04:05;;;;;;;0.30;0.30;;;;;;;;;;1773896;80;26284;-60
2022/09/20 02:06:40;;;;;;;0.20;0.20;;;;;;;;;;1775806;80;26287;-59
2022/09/20 02:09:12;;;;;;;0.35;0.30;;;;;;;;;;1786133;80;26787;-60
2022/09/20 02:11:41;;;;;;;0.20;0.20;;;;;;;;;;1793161;80;26244;-62
2022/09/20 02:14:18;;;;;;;0.30;0.30;;;;;;;;;;1795022;80;26281;-62
2022/09/20 02:16:59;;;;;;;0.30;0.30;;;;;;;;;;1777801;80;26776;-61
2022/09/20 02:19:28;;;;;;;0.50;0.30;;;;;;;;;;1788600;80;27663;-60
2022/09/20 02:22:03;;;;;;;0.20;0.20;;;;;;;;;;1787139;80;26761;-61
2022/09/20 02:24:35;;;;;;;0.30;0.30;;;;;;;;;;1769525;80;26294;-60
2022/09/20 02:27:20;;;;;;;0.30;0.30;;;;;;;;;;1755830;81;26341;-60
2022/09/20 02:29:49;;;;;;;0.10;0.10;;;;;;;;;;1778560;80;26300;-60
2022/09/20 02:32:34;;;;;;;0.20;0.20;;;;;;;;;;1796147;80;26370;-63
2022/09/20 02:35:04;;;;;;;0.37;0.37;;;;;;;;;;1768243;80;26401;-62
2022/09/20 02:37:49;;;;;;;0.30;0.30;;;;;;;;;;1787135;80;26362;-65
2022/09/20 02:40:18;;;;;;;0.55;0.20;;;;;;;;;;1776175;80;26381;-62
2022/09/20 02:42:59;;;;;;;0.20;0.20;;;;;;;;;;1784534;80;27435;-61
2022/09/20 02:45:34;;;;;;;0.23;0.23;;;;;;;;;;1784314;80;26293;-60
2022/09/20 02:48:03;;;;;;;0.28;0.28;;;;;;;;;;1772108;80;26612;-60
2022/09/20 02:50:43;;;;;;;0.17;0.17;;;;;;;;;;1793292;80;26382;-61
2022/09/20 02:53:21;;;;;;;0.20;0.20;;;;;;;;;;1787967;80;26339;-63
2022/09/20 02:55:50;;;;;;;0.20;0.20;;;;;;;;;;1784789;80;26280;-62
2022/09/20 02:58:37;;;;;;;0.15;0.15;;;;;;;;;;1785268;80;26261;-61
2022/09/20 03:01:12;;;;;;;0.25;0.25;;;;;;;;;;1790621;80;27616;-61
2022/09/20 03:03:41;;;;;;;0.10;0.10;;;;;;;;;;1795739;80;26225;-62
2022/09/20 03:06:12;;;;;;;0.20;0.20;;;;;;;;;;1785292;80;26287;-60
2022/09/20 03:08:59;;;;;;;0.20;0.20;;;;;;;;;;1789187;80;26873;-59
2022/09/20 03:11:45;;;;;;;0.30;0.30;;;;;;;;;;1771568;80;26279;-61
2022/09/20 03:14:24;;;;;;;0.10;0.10;;;;;;;;;;1780639;80;26768;-60
2022/09/20 03:17:01;;;;;;;0.20;0.20;;;;;;;;;;1771349;80;26456;-61
2022/09/20 03:19:46;;;;;;;0.20;0.20;;;;;;;;;;1787789;80;26826;-60
2022/09/20 03:22:16;;;;;;;0.30;0.20;;;;;;;;;;1771450;80;26302;-61
2022/09/20 03:24:48;;;;;;;0.30;0.30;;;;;;;;;;1760828;80;26620;-61
2022/09/20 03:27:22;;;;;;;0.20;0.20;;;;;;;;;;1747115;80;26780;-64
2022/09/20 03:29:54;;;;;;;0.30;0.30;;;;;;;;;;1749099;80;26276;-61
2022/09/20 03:32:26;;;;;;;0.20;0.20;;;;;;;;;;1771223;80;26821;-60
2022/09/20 03:34:55;;;;;;;0.45;0.30;;;;;;;;;;1766302;80;26276;-60
2022/09/20 03:37:40;;;;;;;0.30;0.30;;;;;;;;;;1782119;79;26288;-61
2022/09/20 03:40:27;;;;;;;0.20;0.20;;;;;;;;;;1767285;80;26779;-62
2022/09/20 03:42:56;;;;;;;0.30;0.30;;;;;;;;;;1781195;80;26286;-60
2022/09/20 03:45:27;;;;;;;0.95;0.20;;;;;;;;;;1766139;80;26338;-66
2022/09/20 03:48:13;;;;;;;0.20;0.20;;;;;;;;;;1759774;80;26372;-63
2022/09/20 03:50:42;;;;;;;1.10;0.20;;;;;;;;;;1757757;80;26251;-61
2022/09/20 03:53:11;;;;;;;0.30;0.30;;;;;;;;;;1778625;80;26298;-62
2022/09/20 03:55:40;;;;;;;0.30;0.30;;;;;;;;;;1781390;79;26859;-61
2022/09/20 03:58:09;;;;;;;0.57;0.20;;;;;;;;;;1776794;80;26747;-61
2022/09/20 04:00:44;;;;;;;0.20;0.20;;;;;;;;;;1780642;80;26297;-60
2022/09/20 04:03:15;;;;;;;2.27;0.35;;;;;;;;;;1781109;79;26731;-60
2022/09/20 04:05:50;;;;;;;0.37;0.37;;;;;;;;;;1777552;79;26311;-62
2022/09/20 04:08:20;;;;;;;0.33;0.33;;;;;;;;;;1772696;80;26291;-60
2022/09/20 04:10:52;;;;;;;0.20;0.20;;;;;;;;;;1771946;79;26596;-61
2022/09/20 04:13:35;;;;;;;0.10;0.10;;;;;;;;;;1754701;80;26287;-61
2022/09/20 04:16:21;;;;;;;0.20;0.20;;;;;;;;;;1768960;80;26881;-63
2022/09/20 04:18:50;;;;;;;0.30;0.30;;;;;;;;;;1769461;80;26286;-60
2022/09/20 04:21:24;;;;;;;0.50;0.30;;;;;;;;;;1766214;79;26357;-64
2022/09/20 04:23:53;;;;;;;0.20;0.20;;;;;;;;;;1762122;80;26529;-64
2022/09/20 04:26:22;;;;;;;0.37;0.30;;;;;;;;;;1762685;80;26330;-62
2022/09/20 04:28:51;;;;;;;1.92;0.30;;;;;;;;;;1772566;80;26259;-62
2022/09/20 04:31:26;;;;;;;0.20;0.20;;;;;;;;;;1771002;81;26346;-60
2022/09/20 04:33:54;;;;;;;0.30;0.30;;;;;;;;;;1770680;80;26376;-63
2022/09/20 04:36:29;;;;;;;0.30;0.30;;;;;;;;;;1769800;80;26861;-61
2022/09/20 04:39:02;;;;;;;1.20;0.37;;;;;;;;;;1765835;80;26592;-60
2022/09/20 04:41:33;;;;;;;0.30;0.30;;;;;;;;;;1766275;80;26310;-60
2022/09/20 04:44:02;;;;;;;0.20;0.20;;;;;;;;;;1770266;80;26401;-61
2022/09/20 04:46:34;;;;;;;0.40;0.40;;;;;;;;;;1772801;80;26306;-65
2022/09/20 04:49:18;;;;;;;0.42;0.40;;;;;;;;;;1755969;80;25771;-61
2022/09/20 04:51:47;;;;;;;0.20;0.20;;;;;;;;;;1765780;80;26306;-61
2022/09/20 04:54:16;;;;;;;0.20;0.20;;;;;;;;;;1764946;80;26565;-61
2022/09/20 04:56:49;;;;;;;0.37;0.37;;;;;;;;;;1767345;81;26330;-62
2022/09/20 04:59:33;;;;;;;0.35;0.35;;;;;;;;;;1769307;80;26369;-66
2022/09/20 05:02:02;;;;;;;0.50;0.50;;;;;;;;;;1762490;80;26291;-60
2022/09/20 05:04:39;;;;;;;0.30;0.30;;;;;;;;;;1769395;80;27293;-62
2022/09/20 05:07:25;;;;;;;0.30;0.30;;;;;;;;;;1769043;80;26742;-64
2022/09/20 05:10:03;;;;;;;1.55;0.50;;;;;;;;;;1767764;80;26338;-60
2022/09/20 05:12:49;;;;;;;1.35;0.45;;;;;;;;;;1750397;80;26302;-67
2022/09/20 05:15:22;;;;;;;3.08;0.35;;;;;;;;;;1762069;80;26283;-61
2022/09/20 05:18:09;;;;;;;2.80;0.33;;;;;;;;;;1762696;80;27380;-60
2022/09/20 05:20:47;;;;;;;1.37;0.40;;;;;;;;;;1773233;81;27478;-60
2022/09/20 05:23:19;;;;;;;1.65;0.53;;;;;;;;;;1744827;81;26351;-61
2022/09/20 05:25:48;;;;;;;0.82;0.37;;;;;;;;;;1727991;81;26322;-63
2022/09/20 05:28:18;;;;;;;2.15;0.40;;;;;;;;;;1754567;81;26333;-62
2022/09/20 05:30:47;;;;;;;1.27;0.45;;;;;;;;;;1744867;81;26323;-64
2022/09/20 05:33:17;;;;;;;3.05;0.50;;;;;;;;;;1747558;81;26343;-63
2022/09/20 05:35:57;;;;;;;0.40;0.40;;;;;;;;;;1757605;81;26271;-61
2022/09/20 05:38:35;;;;;;;5.58;0.62;;;;;;;;;;1758092;81;26309;-63
2022/09/20 05:41:05;;;;;;;1.10;0.40;;;;;;;;;;1752156;81;26744;-60
2022/09/20 05:43:50;;;;;;;0.90;0.60;;;;;;;;;;1765834;81;26364;-62
2022/09/20 05:46:36;;;;;;;1.70;0.40;;;;;;;;;;1757903;81;26373;-62
2022/09/20 05:49:08;;;;;;;0.47;0.40;;;;;;;;;;1759663;81;26290;-60
2022/09/20 05:51:44;;;;;;;1.45;0.40;;;;;;;;;;1758372;81;26736;-60
2022/09/20 05:54:19;;;;;;;2.72;0.40;;;;;;;;;;1749001;81;26834;-60
2022/09/20 05:56:48;;;;;;;3.47;0.37;;;;;;;;;;1772190;81;26296;-60
2022/09/20 05:59:17;;;;;;;1.95;0.60;;;;;;;;;;1740869;81;26257;-60
2022/09/20 06:01:46;;;;;;;2.98;0.68;;;;;;;;;;1756345;81;26776;-60
2022/09/20 06:04:21;;;;;;;1.42;0.57;;;;;;;;;;1763942;81;27370;-61
2022/09/20 06:06:58;;;;;;;2.40;0.40;;;;;;;;;;1753548;81;26237;-60
2022/09/20 06:09:30;;;;;;;2.33;0.35;;;;;;;;;;1774005;81;26269;-60
2022/09/20 06:12:18;;;;;;;0.28;0.28;;;;;;;;;;1773149;81;26729;-60
2022/09/20 06:14:47;;;;;;;2.83;0.50;;;;;;;;;;1762500;81;26290;-62
2022/09/20 06:17:34;;;;;;;4.10;0.40;;;;;;;;;;1761490;80;26227;-63
2022/09/20 06:20:18;;;;;;;0.65;0.40;;;;;;;;;;1747523;81;26302;-66
2022/09/20 06:22:46;;;;;;;1.02;0.35;;;;;;;;;;1759694;80;26322;-64
2022/09/20 06:25:15;;;;;;;1.37;0.40;;;;;;;;;;1764231;81;27026;-65
2022/09/20 06:27:52;;;;;;;3.33;0.60;;;;;;;;;;1765453;81;26339;-62
2022/09/20 06:30:21;;;;;;;0.62;0.33;;;;;;;;;;1764148;81;26738;-62
2022/09/20 06:32:59;;;;;;;1.10;0.33;;;;;;;;;;1756202;81;26736;-62
2022/09/20 06:35:31;;;;;;;0.30;0.30;;;;;;;;;;1766025;81;26278;-61
2022/09/20 06:43:32;;;;;;;0.40;0.40;;;;;;;;;;1761173;81;26427;-60
2022/09/20 06:45:59;;;;;;;1.42;0.30;;;;;;;;;;1763568;81;26267;-60
2022/09/20 06:48:28;;;;;;;0.28;0.28;;;;;;;;;;1764833;81;26260;-61
2022/09/20 06:50:56;;;;;;;0.20;0.20;;;;;;;;;;1768196;81;26353;-62
2022/09/20 06:53:32;;;;;;;0.42;0.30;;;;;;;;;;1761435;81;26290;-64
2022/09/20 06:56:00;;;;;;;0.37;0.37;;;;;;;;;;1751749;81;26286;-63
2022/09/20 06:58:28;;;;;;;0.30;0.30;;;;;;;;;;1752761;81;26954;-63
2022/09/20 07:00:55;;;;;;;0.40;0.40;;;;;;;;;;1766823;80;26362;-65
2022/09/20 07:03:23;;;;;;;0.53;0.28;;;;;;;;;;1760003;81;26352;-66
2022/09/20 07:05:50;;;;;;;0.20;0.20;;;;;;;;;;1761629;80;27273;-63
2022/09/20 07:08:17;;;;;;;0.30;0.30;;;;;;;;;;1763783;81;26405;-63
2022/09/20 07:10:44;;;;;;;0.40;0.40;;;;;;;;;;1760862;81;26354;-63
2022/09/20 07:13:13;;;;;;;0.20;0.20;;;;;;;;;;1747816;81;27054;-62
2022/09/20 07:15:40;;;;;;;0.65;0.20;;;;;;;;;;1751051;81;27346;-60
2022/09/20 07:18:08;;;;;;;2.12;0.20;;;;;;;;;;1744772;81;26387;-66
2022/09/20 07:20:35;;;;;;;0.30;0.30;;;;;;;;;;1753864;81;26271;-56
2022/09/20 07:23:03;;;;;;;0.30;0.30;;;;;;;;;;1764415;80;26829;-60
2022/09/20 07:25:31;;;;;;;0.30;0.30;;;;;;;;;;1760804;81;26394;-61
2022/09/20 07:27:58;;;;;;;0.25;0.25;;;;;;;;;;1746126;81;26274;-62
2022/09/20 07:30:26;;;;;;;0.10;0.10;;;;;;;;;;1753629;81;26288;-60
2022/09/20 07:32:53;;;;;;;1.55;0.30;;;;;;;;;;1747792;81;26373;-60
2022/09/20 07:35:20;;;;;;;0.20;0.20;;;;;;;;;;1749631;81;26279;-56
2022/09/20 07:37:47;;;;;;;0.20;0.20;;;;;;;;;;1759710;81;26302;-63
2022/09/20 07:40:15;;;;;;;0.20;0.20;;;;;;;;;;1741765;81;26260;-60
2022/09/20 07:42:44;;;;;;;0.30;0.30;;;;;;;;;;1754052;81;26291;-63
2022/09/20 07:45:12;;;;;;;0.35;0.35;;;;;;;;;;1765339;79;27826;-64
2022/09/20 07:47:40;;;;;;;0.20;0.20;;;;;;;;;;1758288;81;26294;-63
2022/09/20 07:50:10;;;;;;;0.20;0.20;;;;;;;;;;1766822;81;26295;-63
2022/09/20 07:52:37;;;;;;;0.20;0.20;;;;;;;;;;1767746;81;26585;-65
2022/09/20 07:55:04;;;;;;;0.20;0.20;;;;;;;;;;1761519;81;26354;-64
2022/09/20 07:57:33;;;;;;;0.30;0.30;;;;;;;;;;1744583;81;26315;-63
2022/09/20 08:00:01;;;;;;;0.20;0.20;;;;;;;;;;1751714;81;26382;-62
2022/09/20 08:02:28;;;;;;;0.20;0.20;;;;;;;;;;1766627;81;26350;-60
2022/09/20 08:04:55;;;;;;;0.65;0.20;;;;;;;;;;1757606;81;26889;-59
2022/09/20 08:07:23;;;;;;;0.30;0.30;;;;;;;;;;1764632;81;27099;-60
2022/09/20 08:09:50;;;;;;;0.13;0.13;;;;;;;;;;1766512;81;26283;-63
2022/09/20 08:12:18;;;;;;;0.20;0.20;;;;;;;;;;1754646;81;26287;-61
2022/09/20 08:14:45;;;;;;;0.10;0.10;;;;;;;;;;1766912;81;26329;-63
2022/09/20 08:17:13;;;;;;;0.30;0.30;;;;;;;;;;1763682;81;26313;-62
2022/09/20 08:19:41;;;;;;;0.30;0.30;;;;;;;;;;1756076;81;26267;-62
2022/09/20 08:22:11;;;;;;;0.10;0.10;;;;;;;;;;1743982;81;26300;-63
2022/09/20 08:24:38;;;;;;;0.30;0.30;;;;;;;;;;1750122;80;26359;-61
2022/09/20 08:27:05;;;;;;;0.28;0.20;;;;;;;;;;1740076;81;26338;-63
2022/09/20 08:29:33;;;;;;;0.30;0.30;;;;;;;;;;1761721;81;26358;-62
2022/09/20 08:32:01;;;;;;;0.20;0.20;;;;;;;;;;1765448;81;26295;-61
2022/09/20 08:34:28;;;;;;;0.20;0.20;;;;;;;;;;1759539;81;26330;-59
2022/09/20 08:36:55;;;;;;;0.20;0.20;;;;;;;;;;1737222;81;26299;-60
2022/09/20 08:39:26;;;;;;;0.15;0.15;;;;;;;;;;1741915;81;26853;-67
2022/09/20 08:42:11;;;;;;;0.23;0.23;;;;;;;;;;1752806;81;26382;-60
2022/09/20 08:44:40;;;;;;;0.28;0.28;;;;;;;;;;1749885;81;26296;-62
2022/09/20 08:47:09;;;;;;;0.20;0.20;;;;;;;;;;1760170;81;26279;-65
2022/09/20 08:49:37;;;;;;;0.20;0.20;;;;;;;;;;1758459;81;26288;-63
2022/09/20 08:52:04;;;;;;;0.20;0.20;;;;;;;;;;1766724;81;26864;-62
2022/09/20 08:54:35;;;;;;;0.20;0.20;;;;;;;;;;1749201;81;26299;-61
2022/09/20 08:57:06;;;;;;;0.30;0.30;;;;;;;;;;1749261;81;27390;-68
2022/09/20 08:59:33;;;;;;;0.20;0.20;;;;;;;;;;1766169;81;26389;-59
2022/09/20 09:02:01;;;;;;;0.55;0.40;;;;;;;;;;1760471;81;26287;-56
2022/09/20 09:04:30;;;;;;;0.30;0.30;;;;;;;;;;1760265;81;26404;-58
2022/09/20 09:06:57;;;;;;;0.35;0.20;;;;;;;;;;1759432;81;26363;-62
2022/09/20 09:09:25;;;;;;;0.30;0.30;;;;;;;;;;1765926;81;26327;-64
2022/09/20 09:11:54;;;;;;;0.40;0.20;;;;;;;;;;1764200;81;26923;-58
2022/09/20 09:17:10;;;;;;;1.17;0.33;;;;;;;;;;1764218;81;26373;-63
2022/09/20 09:19:45;;;;;;;0.40;0.40;;;;;;;;;;1756084;81;26585;-64
2022/09/20 09:22:14;;;;;;;1.07;0.30;;;;;;;;;;1758469;81;26379;-67
2022/09/20 09:24:41;;;;;;;0.40;0.40;;;;;;;;;;1763975;80;26328;-57
2022/09/20 09:27:13;;;;;;;0.30;0.30;;;;;;;;;;1765974;81;26287;-58
2022/09/20 09:29:50;;;;;;;1.98;0.50;;;;;;;;;;1761115;81;26282;-63
2022/09/20 09:32:27;;;;;;;0.93;0.53;;;;;;;;;;1762006;81;26362;-61
2022/09/20 09:34:56;;;;;;;1.50;0.70;;;;;;;;;;1758927;81;26316;-63
2022/09/20 09:37:25;;;;;;;1.07;0.55;;;;;;;;;;1762088;81;26536;-60
2022/09/20 09:40:09;;;;;;;0.60;0.55;;;;;;;;;;1755922;81;26271;-59
2022/09/20 09:42:36;;;;;;;0.90;0.50;;;;;;;;;;1760876;81;26295;-60
2022/09/20 09:45:10;;;;;;;0.30;0.30;;;;;;;;;;1760231;81;27297;-64
2022/09/20 09:47:38;;;;;;;0.55;0.42;;;;;;;;;;1764133;81;26372;-63
2022/09/20 09:50:06;;;;;;;0.37;0.30;;;;;;;;;;1765666;81;26376;-60
2022/09/20 09:52:35;;;;;;;0.40;0.40;;;;;;;;;;1763543;81;26335;-60
2022/09/20 09:55:03;;;;;;;1.00;0.55;;;;;;;;;;1765933;81;26296;-58
2022/09/20 09:57:44;;;;;;;0.42;0.40;;;;;;;;;;1765685;81;26287;-61
2022/09/20 10:00:13;;;;;;;0.42;0.40;;;;;;;;;;1764484;81;26699;-64
2022/09/20 10:02:57;;;;;;;1.98;0.50;;;;;;;;;;1746887;81;26319;-65
2022/09/20 10:05:32;;;;;;;0.47;0.40;;;;;;;;;;1762268;81;26358;-65
2022/09/20 10:08:09;;;;;;;0.80;0.60;;;;;;;;;;1763963;81;26365;-63
2022/09/20 10:10:44;;;;;;;0.40;0.30;;;;;;;;;;1761109;81;26300;-63
2022/09/20 10:13:16;;;;;;;0.40;0.40;;;;;;;;;;1762347;81;26345;-63
2022/09/20 10:15:48;;;;;;;2.15;0.40;;;;;;;;;;1762799;81;26784;-67
2022/09/20 10:18:33;;;;;;;1.47;0.40;;;;;;;;;;1764096;81;26746;-61
2022/09/20 10:21:14;;;;;;;0.40;0.40;;;;;;;;;;1759425;81;26771;-61
2022/09/20 10:23:43;;;;;;;0.40;0.40;;;;;;;;;;1760793;80;26318;-63
2022/09/20 10:26:29;;;;;;;0.20;0.20;;;;;;;;;;1762977;81;26283;-56
2022/09/20 10:28:57;;;;;;;0.40;0.40;;;;;;;;;;1760255;81;26295;-56
2022/09/20 10:31:29;;;;;;;0.78;0.50;;;;;;;;;;1761299;81;26411;-59
2022/09/20 10:34:02;;;;;;;0.50;0.50;;;;;;;;;;1766339;81;26319;-60
2022/09/20 10:36:31;;;;;;;0.98;0.60;;;;;;;;;;1757409;81;26401;-57
2022/09/20 10:39:12;;;;;;;0.45;0.45;;;;;;;;;;1761641;81;26282;-58
2022/09/20 10:44:44;;;;;;;0.53;0.53;;;;;;;;;;1763018;81;26373;-55
2022/09/20 10:47:18;;;;;;;0.55;0.50;;;;;;;;;;1746611;81;26733;-56
2022/09/20 10:49:51;;;;;;;0.37;0.35;;;;;;;;;;1753529;81;26737;-60
2022/09/20 10:52:33;;;;;;;0.80;0.42;;;;;;;;;;1743606;81;26288;-64
2022/09/20 10:55:19;;;;;;;0.57;0.57;;;;;;;;;;1760125;81;26437;-69
2022/09/20 10:57:48;;;;;;;0.40;0.40;;;;;;;;;;1754614;81;26247;-57
2022/09/20 11:00:25;;;;;;;0.50;0.50;;;;;;;;;;1761619;81;26297;-65
2022/09/20 11:02:57;;;;;;;0.35;0.35;;;;;;;;;;1756328;81;26902;-61
2022/09/20 11:05:42;;;;;;;0.90;0.45;;;;;;;;;;1765342;80;26281;-62
2022/09/20 11:08:11;;;;;;;1.22;0.40;;;;;;;;;;1765782;81;26294;-62
2022/09/20 11:10:55;;;;;;;0.68;0.50;;;;;;;;;;1747075;81;26338;-63
2022/09/20 11:13:24;;;;;;;0.95;0.50;;;;;;;;;;1760205;81;26293;-62
2022/09/20 11:15:54;;;;;;;0.40;0.40;;;;;;;;;;1767119;81;26281;-62
2022/09/20 11:18:23;;;;;;;0.50;0.50;;;;;;;;;;1758747;79;26366;-63
2022/09/20 11:20:53;;;;;;;0.35;0.35;;;;;;;;;;1758078;79;26301;-62
2022/09/20 11:23:38;;;;;;;0.40;0.40;;;;;;;;;;1751853;79;26295;-63
2022/09/20 11:26:13;;;;;;;4.47;0.53;;;;;;;;;;1726027;81;26372;-59
2022/09/20 11:28:41;;;;;;;0.62;0.30;;;;;;;;;;1744481;81;26343;-63
2022/09/20 11:31:11;;;;;;;0.40;0.40;;;;;;;;;;1764840;81;26281;-63
2022/09/20 11:33:43;;;;;;;0.40;0.40;;;;;;;;;;1759127;81;26313;-65
2022/09/20 11:36:12;;;;;;;1.50;0.40;;;;;;;;;;1743857;81;26352;-64
2022/09/20 11:38:50;;;;;;;0.33;0.33;;;;;;;;;;1757128;79;26388;-60
2022/09/20 11:41:25;;;;;;;1.57;0.42;;;;;;;;;;1749395;81;26380;-61
2022/09/20 11:43:53;;;;;;;0.40;0.40;;;;;;;;;;1766222;81;26290;-61
2022/09/20 11:46:22;;;;;;;0.45;0.40;;;;;;;;;;1756117;80;26294;-61
2022/09/20 11:48:51;;;;;;;0.30;0.30;;;;;;;;;;1753964;80;26307;-66
2022/09/20 11:51:22;;;;;;;0.40;0.40;;;;;;;;;;1745694;81;26329;-64
2022/09/20 11:54:00;;;;;;;0.37;0.37;;;;;;;;;;1751198;79;26792;-64
2022/09/20 11:56:29;;;;;;;1.17;0.30;;;;;;;;;;1754300;81;27430;-58
2022/09/20 11:58:58;;;;;;;1.47;0.42;;;;;;;;;;1767527;81;26356;-59
2022/09/20 12:01:31;;;;;;;0.35;0.35;;;;;;;;;;1761139;81;26291;-59
2022/09/20 12:03:59;;;;;;;0.50;0.50;;;;;;;;;;1761681;81;26281;-61
2022/09/20 12:06:28;;;;;;;0.40;0.40;;;;;;;;;;1757410;81;26803;-62
2022/09/20 12:08:57;;;;;;;0.70;0.70;;;;;;;;;;1758634;81;26302;-60
2022/09/20 12:11:32;;;;;;;0.42;0.42;;;;;;;;;;1752617;81;26294;-59
2022/09/20 12:14:02;;;;;;;0.30;0.30;;;;;;;;;;1760755;81;26297;-60
2022/09/20 12:19:35;;;;;;;1.00;0.50;;;;;;;;;;1861454;76;26796;-60
2022/09/20 12:22:04;;;;;;;1.25;0.47;;;;;;;;;;1870305;76;26285;-60
2022/09/20 12:24:32;;;;;;;0.30;0.30;;;;;;;;;;1833860;76;26280;-62
2022/09/20 12:27:00;;;;;;;0.40;0.40;;;;;;;;;;1831310;76;26281;-64
2022/09/20 12:29:33;;;;;;;0.37;0.37;;;;;;;;;;1873145;76;26776;-63
2022/09/20 12:32:01;;;;;;;0.40;0.40;;;;;;;;;;1866161;76;26278;-61
2022/09/20 12:34:30;;;;;;;1.37;0.50;;;;;;;;;;1861563;76;26268;-62
2022/09/20 12:36:59;;;;;;;0.47;0.47;;;;;;;;;;1852241;76;26321;-61
2022/09/20 12:39:30;;;;;;;0.50;0.50;;;;;;;;;;1869532;76;26246;-60
2022/09/20 12:42:11;;;;;;;0.50;0.50;;;;;;;;;;1860289;76;26266;-60
2022/09/20 12:44:40;;;;;;;0.50;0.50;;;;;;;;;;1866504;76;26614;-60
2022/09/20 12:47:12;;;;;;;0.50;0.50;;;;;;;;;;1864942;76;26270;-65
2022/09/20 12:53:02;;;;;;;0.47;0.47;;;;;;;;;;1851306;76;26340;-63
2022/09/20 12:55:32;;;;;;;0.60;0.60;;;;;;;;;;1846008;76;26305;-61
2022/09/20 12:58:01;;;;;;;0.65;0.45;;;;;;;;;;1875520;76;27235;-60
2022/09/20 13:00:38;;;;;;;0.65;0.65;;;;;;;;;;1853330;76;26246;-60
2022/09/20 13:03:12;;;;;;;0.40;0.40;;;;;;;;;;1849148;76;26327;-53
2022/09/20 13:05:44;;;;;;;0.50;0.50;;;;;;;;;;1852997;76;26657;-61
2022/09/20 13:08:13;;;;;;;1.55;0.50;;;;;;;;;;1865344;76;26727;-61
2022/09/20 13:10:42;;;;;;;0.60;0.60;;;;;;;;;;1864915;76;26906;-61
2022/09/20 13:13:13;;;;;;;0.68;0.68;;;;;;;;;;1861990;76;26740;-62
2022/09/20 13:15:42;;;;;;;0.50;0.50;;;;;;;;;;1868672;76;26265;-67
2022/09/20 13:18:11;;;;;;;0.50;0.50;;;;;;;;;;1870180;75;26364;-64
2022/09/20 13:20:40;;;;;;;0.62;0.60;;;;;;;;;;1858713;76;26270;-65
2022/09/20 13:23:08;;;;;;;0.57;0.57;;;;;;;;;;1870314;76;26315;-67
2022/09/20 13:25:37;;;;;;;0.50;0.50;;;;;;;;;;1830733;76;26748;-65
2022/09/20 13:28:21;;;;;;;0.60;0.60;;;;;;;;;;1848176;76;26733;-64
2022/09/20 13:30:49;;;;;;;0.62;0.62;;;;;;;;;;1862722;76;26827;-55
2022/09/20 13:33:23;;;;;;;0.50;0.50;;;;;;;;;;1866819;76;26257;-61
2022/09/20 13:35:53;;;;;;;0.40;0.40;;;;;;;;;;1861455;76;26261;-63
2022/09/20 13:38:23;;;;;;;0.62;0.62;;;;;;;;;;1857523;76;26281;-62
2022/09/20 13:40:53;;;;;;;0.57;0.57;;;;;;;;;;1864777;76;26274;-59
2022/09/20 13:43:27;;;;;;;0.60;0.60;;;;;;;;;;1855081;76;26291;-63
2022/09/20 13:45:56;;;;;;;0.50;0.50;;;;;;;;;;1845657;76;26249;-63
2022/09/20 13:48:25;;;;;;;0.53;0.53;;;;;;;;;;1845339;76;26814;-58
2022/09/20 13:50:53;;;;;;;0.68;0.68;;;;;;;;;;1850893;76;26282;-61
2022/09/20 13:53:22;;;;;;;0.37;0.37;;;;;;;;;;1859329;76;26281;-61
2022/09/20 13:55:49;;;;;;;0.45;0.45;;;;;;;;;;1868758;76;26776;-64
2022/09/20 13:58:21;;;;;;;0.50;0.50;;;;;;;;;;1872716;76;26738;-65
2022/09/20 14:00:50;;;;;;;0.47;0.47;;;;;;;;;;1859843;76;26672;-60
2022/09/20 14:03:18;;;;;;;0.50;0.50;;;;;;;;;;1865170;76;26254;-63
2022/09/20 14:05:50;;;;;;;0.60;0.60;;;;;;;;;;1868499;76;26188;-64
2022/09/20 14:08:22;;;;;;;0.53;0.53;;;;;;;;;;1873253;76;26254;-63
2022/09/20 14:10:50;;;;;;;1.20;0.40;;;;;;;;;;1872257;76;26262;-66
2022/09/20 14:13:18;;;;;;;0.35;0.35;;;;;;;;;;1875824;76;26230;-60
2022/09/20 14:15:46;;;;;;;9.00;0.60;;;;;;;;;;1875400;76;26287;-56
2022/09/20 14:18:15;;;;;;;1.67;0.40;;;;;;;;;;1856098;76;26454;-55
2022/09/20 14:20:44;;;;;;;2.08;0.50;;;;;;;;;;1842030;77;26343;-67
2022/09/20 14:23:21;;;;;;;0.50;0.50;;;;;;;;;;1854756;77;26321;-59
2022/09/20 14:26:07;;;;;;;0.62;0.50;;;;;;;;;;1829910;77;26276;-61
2022/09/20 14:28:34;;;;;;;1.27;0.47;;;;;;;;;;1848268;77;26735;-61
2022/09/20 14:31:06;;;;;;;0.50;0.50;;;;;;;;;;1862833;77;26263;-59
2022/09/20 14:33:33;;;;;;;0.50;0.50;;;;;;;;;;1864078;77;26243;-59
2022/09/20 14:36:01;;;;;;;0.40;0.40;;;;;;;;;;1850180;76;26802;-58
2022/09/20 14:38:28;;;;;;;0.40;0.40;;;;;;;;;;1861565;77;26207;-56
2022/09/20 14:40:55;;;;;;;0.35;0.35;;;;;;;;;;1840482;77;26771;-62
2022/09/20 14:43:30;;;;;;;0.65;0.40;;;;;;;;;;1845759;76;26718;-59
2022/09/20 14:46:04;;;;;;;0.33;0.33;;;;;;;;;;1836302;77;26313;-66
2022/09/20 14:48:32;;;;;;;0.57;0.30;;;;;;;;;;1835056;77;26288;-61
2022/09/20 14:51:24;;;;;;;1.07;0.40;;;;;;;;;;1866647;77;26754;-64
2022/09/20 14:53:49;;;;;;;4.45;0.50;;;;;;;;;;1859814;77;26755;-63
2022/09/20 14:56:18;;;;;;;1.25;0.40;;;;;;;;;;1862066;76;26254;-62
2022/09/20 14:59:03;;;;;;;0.40;0.40;;;;;;;;;;1863718;77;26263;-65
2022/09/20 15:01:31;;;;;;;0.42;0.42;;;;;;;;;;1866414;77;27459;-63
2022/09/20 15:03:58;;;;;;;0.40;0.40;;;;;;;;;;1850566;76;26235;-61
2022/09/20 15:06:26;;;;;;;0.30;0.30;;;;;;;;;;1851660;77;26213;-60
2022/09/20 15:08:53;;;;;;;0.20;0.20;;;;;;;;;;1853002;77;26741;-60
2022/09/20 15:11:20;;;;;;;0.33;0.33;;;;;;;;;;1847718;77;27297;-61
2022/09/20 15:13:47;;;;;;;0.30;0.30;;;;;;;;;;1848975;77;26636;-68
2022/09/20 15:16:16;;;;;;;0.20;0.20;;;;;;;;;;1844467;77;26709;-65
2022/09/20 15:18:44;;;;;;;0.75;0.42;;;;;;;;;;1837535;76;26380;-60
2022/09/20 15:21:11;;;;;;;0.20;0.20;;;;;;;;;;1849532;77;26253;-62
2022/09/20 15:23:39;;;;;;;0.30;0.30;;;;;;;;;;1848638;76;26659;-61
2022/09/20 15:26:07;;;;;;;1.22;0.40;;;;;;;;;;1851428;77;27159;-59
2022/09/20 15:28:35;;;;;;;0.20;0.20;;;;;;;;;;1858075;77;26711;-62